TAF SKAR
SKAR 072230Z 0800/0824 VRB04KT 9999 SCT020 TEMPO 0819/0823 SCT017TCU TX29/0819Z TN18/0810Z=
METAR SKAR
SKAR 080000Z 22003KT 9999 SCT025 SCT090 24/19 Q1014 RMK A2996=
SKAR 062300Z 17003KT 9999 TS VCSH FEW020CB BKN023 25/19 Q1015 RMK CB VCSH/SE A2998=
SKAR 061700Z 29003KT 9999 SCT020 SCT090 26/19 Q1018 RMK A3007=
SKAR 060200Z 00000KT 9999 FEW017 20/19 Q1018 RMK A3006=
SKAR 060100Z 00000KT 9999 SCT020 20/19 Q1017 RMK A3004=
WC SKAR
WS SKAR
WV SKAR